sensor_id;sensor_type;location;lat;lon;timestamp;pressure;altitude;pressure_sealevel;temperature;humidity
84781;BME280;75011;50.086;19.886;2024-01-30T00:00:10;100774.34;;;-2.91;87.58
84781;BME280;75011;50.086;19.886;2024-01-30T00:03:11;100772.91;;;-2.95;87.84
84781;BME280;75011;50.086;19.886;2024-01-30T00:06:11;100772.28;;;-2.99;88.03
84781;BME280;75011;50.086;19.886;2024-01-30T00:09:12;100770.03;;;-3.03;87.85
84781;BME280;75011;50.086;19.886;2024-01-30T00:12:12;100765.75;;;-3.04;88.18
84781;BME280;75011;50.086;19.886;2024-01-30T00:15:14;100760.25;;;-3.12;87.84
84781;BME280;75011;50.086;19.886;2024-01-30T00:18:15;100763.13;;;-3.15;88.16
84781;BME280;75011;50.086;19.886;2024-01-30T00:21:15;100758.47;;;-3.12;88.34
84781;BME280;75011;50.086;19.886;2024-01-30T00:24:17;100770.31;;;-3.17;87.97
84781;BME280;75011;50.086;19.886;2024-01-30T00:27:17;100769.13;;;-3.25;88.48
84781;BME280;75011;50.086;19.886;2024-01-30T00:30:20;100771.63;;;-3.23;87.94
84781;BME280;75011;50.086;19.886;2024-01-30T00:33:20;100776.63;;;-3.20;87.87
84781;BME280;75011;50.086;19.886;2024-01-30T00:36:21;100780.44;;;-3.24;88.27
84781;BME280;75011;50.086;19.886;2024-01-30T00:39:21;100776.25;;;-3.27;88.28
84781;BME280;75011;50.086;19.886;2024-01-30T00:42:21;100772.44;;;-3.34;88.35
84781;BME280;75011;50.086;19.886;2024-01-30T00:45:23;100768.03;;;-3.33;87.76
84781;BME280;75011;50.086;19.886;2024-01-30T00:48:24;100770.28;;;-3.29;88.06
84781;BME280;75011;50.086;19.886;2024-01-30T00:51:24;100759.69;;;-3.27;88.59
84781;BME280;75011;50.086;19.886;2024-01-30T00:54:25;100757.28;;;-3.30;87.76
84781;BME280;75011;50.086;19.886;2024-01-30T00:57:25;100760.50;;;-3.27;88.57
84781;BME280;75011;50.086;19.886;2024-01-30T01:00:27;100760.38;;;-3.25;88.16
84781;BME280;75011;50.086;19.886;2024-01-30T01:03:27;100758.84;;;-3.28;88.32
84781;BME280;75011;50.086;19.886;2024-01-30T01:06:28;100752.25;;;-3.33;87.85
84781;BME280;75011;50.086;19.886;2024-01-30T01:09:28;100748.78;;;-3.34;88.33
84781;BME280;75011;50.086;19.886;2024-01-30T01:12:29;100746.53;;;-3.38;88.32
84781;BME280;75011;50.086;19.886;2024-01-30T01:15:31;100752.63;;;-3.38;87.97
84781;BME280;75011;50.086;19.886;2024-01-30T01:18:31;100741.16;;;-3.37;87.91
84781;BME280;75011;50.086;19.886;2024-01-30T01:21:31;100738.06;;;-3.31;88.28
84781;BME280;75011;50.086;19.886;2024-01-30T01:24:32;100743.06;;;-3.28;88.12
84781;BME280;75011;50.086;19.886;2024-01-30T01:27:32;100742.59;;;-3.33;88.01
84781;BME280;75011;50.086;19.886;2024-01-30T01:30:34;100739.34;;;-3.47;87.77
84781;BME280;75011;50.086;19.886;2024-01-30T01:33:35;100743.78;;;-3.59;88.35
84781;BME280;75011;50.086;19.886;2024-01-30T01:36:35;100738.19;;;-3.65;87.88
84781;BME280;75011;50.086;19.886;2024-01-30T01:39:36;100739.00;;;-3.65;87.99
84781;BME280;75011;50.086;19.886;2024-01-30T01:42:36;100744.38;;;-3.66;88.04
84781;BME280;75011;50.086;19.886;2024-01-30T01:45:38;100752.25;;;-3.66;88.04
84781;BME280;75011;50.086;19.886;2024-01-30T01:48:38;100742.59;;;-3.66;88.31
84781;BME280;75011;50.086;19.886;2024-01-30T01:51:39;100744.00;;;-3.62;88.28
84781;BME280;75011;50.086;19.886;2024-01-30T01:54:41;100738.75;;;-3.62;88.08
84781;BME280;75011;50.086;19.886;2024-01-30T01:57:42;100741.28;;;-3.60;88.49
84781;BME280;75011;50.086;19.886;2024-01-30T02:00:43;100731.59;;;-3.60;88.77
84781;BME280;75011;50.086;19.886;2024-01-30T02:03:44;100738.75;;;-3.62;88.40
84781;BME280;75011;50.086;19.886;2024-01-30T02:06:45;100733.50;;;-3.62;88.59
84781;BME280;75011;50.086;19.886;2024-01-30T02:09:46;100721.59;;;-3.66;88.53
84781;BME280;75011;50.086;19.886;2024-01-30T02:12:47;100732.78;;;-3.64;88.47
84781;BME280;75011;50.086;19.886;2024-01-30T02:15:50;100730.31;;;-3.65;87.81
84781;BME280;75011;50.086;19.886;2024-01-30T02:18:51;100733.63;;;-3.63;87.99
84781;BME280;75011;50.086;19.886;2024-01-30T02:21:53;100725.75;;;-3.63;88.49
84781;BME280;75011;50.086;19.886;2024-01-30T02:24:54;100724.91;;;-3.64;88.30
84781;BME280;75011;50.086;19.886;2024-01-30T02:27:55;100717.16;;;-3.65;88.50
84781;BME280;75011;50.086;19.886;2024-01-30T02:30:55;100714.78;;;-3.68;88.33
84781;BME280;75011;50.086;19.886;2024-01-30T02:33:55;100711.53;;;-3.72;88.07
84781;BME280;75011;50.086;19.886;2024-01-30T02:36:57;100713.47;;;-3.74;88.67
84781;BME280;75011;50.086;19.886;2024-01-30T02:39:58;100703.91;;;-3.75;88.44
84781;BME280;75011;50.086;19.886;2024-01-30T02:42:59;100705.81;;;-3.77;88.07
84781;BME280;75011;50.086;19.886;2024-01-30T02:45:59;100701.25;;;-3.75;88.53
84781;BME280;75011;50.086;19.886;2024-01-30T02:49:00;100705.56;;;-3.74;88.19
84781;BME280;75011;50.086;19.886;2024-01-30T02:52:02;100699.63;;;-3.76;88.54
84781;BME280;75011;50.086;19.886;2024-01-30T02:55:03;100698.63;;;-3.75;88.39
84781;BME280;75011;50.086;19.886;2024-01-30T02:58:04;100696.84;;;-3.74;88.39
84781;BME280;75011;50.086;19.886;2024-01-30T03:01:04;100701.75;;;-3.81;88.37
84781;BME280;75011;50.086;19.886;2024-01-30T03:04:05;100699.59;;;-3.87;88.17
84781;BME280;75011;50.086;19.886;2024-01-30T03:07:07;100703.16;;;-3.99;88.02
84781;BME280;75011;50.086;19.886;2024-01-30T03:10:07;100696.47;;;-4.03;88.23
84781;BME280;75011;50.086;19.886;2024-01-30T03:13:08;100693.59;;;-4.11;87.75
84781;BME280;75011;50.086;19.886;2024-01-30T03:16:08;100697.06;;;-4.11;88.32
84781;BME280;75011;50.086;19.886;2024-01-30T03:19:09;100704.69;;;-4.08;88.21
84781;BME280;75011;50.086;19.886;2024-01-30T03:22:11;100707.94;;;-4.04;88.24
84781;BME280;75011;50.086;19.886;2024-01-30T03:25:11;100698.59;;;-4.08;88.28
84781;BME280;75011;50.086;19.886;2024-01-30T03:28:12;100697.53;;;-4.06;88.52
84781;BME280;75011;50.086;19.886;2024-01-30T03:31:14;100702.31;;;-4.00;88.36
84781;BME280;75011;50.086;19.886;2024-01-30T03:34:14;100705.56;;;-3.96;88.32
84781;BME280;75011;50.086;19.886;2024-01-30T03:37:16;100704.50;;;-3.94;88.41
84781;BME280;75011;50.086;19.886;2024-01-30T03:40:17;100698.50;;;-3.96;88.29
84781;BME280;75011;50.086;19.886;2024-01-30T03:43:17;100701.75;;;-3.92;88.09
84781;BME280;75011;50.086;19.886;2024-01-30T03:46:18;100700.31;;;-3.96;87.83
84781;BME280;75011;50.086;19.886;2024-01-30T03:49:18;100705.75;;;-4.10;87.76
84781;BME280;75011;50.086;19.886;2024-01-30T03:52:20;100699.78;;;-4.23;87.64
84781;BME280;75011;50.086;19.886;2024-01-30T03:55:20;100695.09;;;-4.31;88.11
84781;BME280;75011;50.086;19.886;2024-01-30T03:58:21;100694.59;;;-4.36;88.07
84781;BME280;75011;50.086;19.886;2024-01-30T04:01:21;100699.75;;;-4.34;87.88
84781;BME280;75011;50.086;19.886;2024-01-30T04:04:22;100699.41;;;-4.30;87.99
84781;BME280;75011;50.086;19.886;2024-01-30T04:07:23;100705.50;;;-4.29;87.81
84781;BME280;75011;50.086;19.886;2024-01-30T04:10:24;100698.56;;;-4.30;87.85
84781;BME280;75011;50.086;19.886;2024-01-30T04:13:24;100695.81;;;-4.29;87.94
84781;BME280;75011;50.086;19.886;2024-01-30T04:16:25;100686.78;;;-4.25;88.36
84781;BME280;75011;50.086;19.886;2024-01-30T04:19:25;100688.91;;;-4.19;88.25
84781;BME280;75011;50.086;19.886;2024-01-30T04:22:27;100696.56;;;-4.16;87.77
84781;BME280;75011;50.086;19.886;2024-01-30T04:25:27;100691.53;;;-4.19;88.24
84781;BME280;75011;50.086;19.886;2024-01-30T04:28:28;100704.44;;;-4.16;88.33
84781;BME280;75011;50.086;19.886;2024-01-30T04:31:28;100693.59;;;-4.11;88.41
84781;BME280;75011;50.086;19.886;2024-01-30T04:34:29;100696.47;;;-4.03;88.53
84781;BME280;75011;50.086;19.886;2024-01-30T04:37:31;100691.47;;;-3.95;88.42
84781;BME280;75011;50.086;19.886;2024-01-30T04:40:31;100690.78;;;-3.86;88.59
84781;BME280;75011;50.086;19.886;2024-01-30T04:43:32;100695.66;;;-3.82;88.19
84781;BME280;75011;50.086;19.886;2024-01-30T04:46:32;100707.13;;;-3.94;88.17
84781;BME280;75011;50.086;19.886;2024-01-30T04:49:32;100697.88;;;-4.10;88.03
84781;BME280;75011;50.086;19.886;2024-01-30T04:52:34;100692.59;;;-4.21;87.68
84781;BME280;75011;50.086;19.886;2024-01-30T04:55:35;100697.94;;;-4.34;87.69
84781;BME280;75011;50.086;19.886;2024-01-30T04:58:35;100701.75;;;-4.38;87.55
84781;BME280;75011;50.086;19.886;2024-01-30T05:01:36;100694.34;;;-4.44;87.43
84781;BME280;75011;50.086;19.886;2024-01-30T05:04:36;100705.41;;;-4.52;87.53
84781;BME280;75011;50.086;19.886;2024-01-30T05:07:39;100704.91;;;-4.57;87.42
84781;BME280;75011;50.086;19.886;2024-01-30T05:10:39;100705.25;;;-4.61;87.49
84781;BME280;75011;50.086;19.886;2024-01-30T05:13:39;100706.75;;;-4.70;87.25
84781;BME280;75011;50.086;19.886;2024-01-30T05:16:40;100700.59;;;-4.69;87.44
84781;BME280;75011;50.086;19.886;2024-01-30T05:19:41;100705.81;;;-4.69;87.40
84781;BME280;75011;50.086;19.886;2024-01-30T05:22:42;100696.75;;;-4.76;86.96
84781;BME280;75011;50.086;19.886;2024-01-30T05:25:43;100707.44;;;-4.79;87.14
84781;BME280;75011;50.086;19.886;2024-01-30T05:28:43;100701.72;;;-4.84;87.43
84781;BME280;75011;50.086;19.886;2024-01-30T05:31:44;100700.50;;;-4.91;87.86
84781;BME280;75011;50.086;19.886;2024-01-30T05:34:44;100702.28;;;-4.91;87.66
84781;BME280;75011;50.086;19.886;2024-01-30T05:37:47;100710.63;;;-4.86;87.13
84781;BME280;75011;50.086;19.886;2024-01-30T05:40:47;100713.97;;;-4.84;87.50
84781;BME280;75011;50.086;19.886;2024-01-30T05:43:48;100712.91;;;-4.82;87.64
84781;BME280;75011;50.086;19.886;2024-01-30T05:46:48;100715.19;;;-4.77;87.43
84781;BME280;75011;50.086;19.886;2024-01-30T05:49:49;100710.78;;;-4.77;87.50
84781;BME280;75011;50.086;19.886;2024-01-30T05:52:50;100707.81;;;-4.72;87.46
84781;BME280;75011;50.086;19.886;2024-01-30T05:55:51;100717.72;;;-4.76;87.79
84781;BME280;75011;50.086;19.886;2024-01-30T05:58:51;100711.97;;;-4.81;87.62
84781;BME280;75011;50.086;19.886;2024-01-30T06:01:52;100716.25;;;-4.80;87.51
84781;BME280;75011;50.086;19.886;2024-01-30T06:04:52;100716.66;;;-4.73;87.57
84781;BME280;75011;50.086;19.886;2024-01-30T06:07:54;100716.81;;;-4.64;87.93
84781;BME280;75011;50.086;19.886;2024-01-30T06:10:55;100708.72;;;-4.61;87.77
84781;BME280;75011;50.086;19.886;2024-01-30T06:13:55;100709.88;;;-4.65;87.95
84781;BME280;75011;50.086;19.886;2024-01-30T06:16:56;100712.84;;;-4.69;87.85
84781;BME280;75011;50.086;19.886;2024-01-30T06:19:56;100703.66;;;-4.75;88.03
84781;BME280;75011;50.086;19.886;2024-01-30T06:22:58;100715.09;;;-4.76;87.59
84781;BME280;75011;50.086;19.886;2024-01-30T06:25:58;100709.84;;;-4.76;87.05
84781;BME280;75011;50.086;19.886;2024-01-30T06:28:59;100714.13;;;-4.75;87.65
84781;BME280;75011;50.086;19.886;2024-01-30T06:31:59;100711.84;;;-4.79;87.45
84781;BME280;75011;50.086;19.886;2024-01-30T06:35:00;100707.00;;;-4.73;87.18
84781;BME280;75011;50.086;19.886;2024-01-30T06:38:02;100712.13;;;-4.71;87.78
84781;BME280;75011;50.086;19.886;2024-01-30T06:41:02;100707.81;;;-4.72;87.42
84781;BME280;75011;50.086;19.886;2024-01-30T06:44:03;100706.09;;;-4.61;87.23
84781;BME280;75011;50.086;19.886;2024-01-30T06:47:04;100714.19;;;-4.64;87.26
84781;BME280;75011;50.086;19.886;2024-01-30T06:50:05;100711.34;;;-4.61;87.71
84781;BME280;75011;50.086;19.886;2024-01-30T06:53:07;100720.31;;;-4.52;87.73
84781;BME280;75011;50.086;19.886;2024-01-30T06:56:08;100711.41;;;-4.38;87.90
84781;BME280;75011;50.086;19.886;2024-01-30T06:59:08;100718.13;;;-4.23;87.85
84781;BME280;75011;50.086;19.886;2024-01-30T07:02:08;100708.53;;;-4.12;87.72
84781;BME280;75011;50.086;19.886;2024-01-30T07:05:09;100708.28;;;-3.98;87.65
84781;BME280;75011;50.086;19.886;2024-01-30T07:08:11;100704.50;;;-3.83;87.39
84781;BME280;75011;50.086;19.886;2024-01-30T07:11:18;100690.53;;;-3.72;86.96
84781;BME280;75011;50.086;19.886;2024-01-30T07:14:20;100674.91;;;-3.73;87.07
84781;BME280;75011;50.086;19.886;2024-01-30T07:17:20;100670.97;;;-3.68;86.86
84781;BME280;75011;50.086;19.886;2024-01-30T07:20:20;100691.72;;;-3.54;86.89
84781;BME280;75011;50.086;19.886;2024-01-30T07:23:22;100688.34;;;-3.45;86.41
84781;BME280;75011;50.086;19.886;2024-01-30T07:26:23;100687.28;;;-3.42;86.51
84781;BME280;75011;50.086;19.886;2024-01-30T07:29:23;100681.91;;;-3.30;86.55
84781;BME280;75011;50.086;19.886;2024-01-30T07:32:24;100690.47;;;-3.17;86.02
84781;BME280;75011;50.086;19.886;2024-01-30T07:35:24;100695.84;;;-3.07;85.92
84781;BME280;75011;50.086;19.886;2024-01-30T07:38:26;100691.63;;;-2.98;85.80
84781;BME280;75011;50.086;19.886;2024-01-30T07:41:26;100696.16;;;-2.89;85.64
84781;BME280;75011;50.086;19.886;2024-01-30T07:44:27;100696.72;;;-2.86;85.76
84781;BME280;75011;50.086;19.886;2024-01-30T07:47:27;100696.00;;;-2.77;85.55
84781;BME280;75011;50.086;19.886;2024-01-30T07:50:28;100691.75;;;-2.68;85.89
84781;BME280;75011;50.086;19.886;2024-01-30T07:53:29;100688.13;;;-2.56;85.73
84781;BME280;75011;50.086;19.886;2024-01-30T07:56:30;100689.16;;;-2.47;84.88
84781;BME280;75011;50.086;19.886;2024-01-30T07:59:30;100699.63;;;-2.36;85.33
84781;BME280;75011;50.086;19.886;2024-01-30T08:02:31;100695.13;;;-2.25;85.04
84781;BME280;75011;50.086;19.886;2024-01-30T08:05:31;100692.19;;;-2.11;85.02
84781;BME280;75011;50.086;19.886;2024-01-30T08:08:33;100691.28;;;-2.00;85.20
84781;BME280;75011;50.086;19.886;2024-01-30T08:11:33;100694.66;;;-1.88;85.25
84781;BME280;75011;50.086;19.886;2024-01-30T08:14:34;100695.84;;;-1.81;84.21
84781;BME280;75011;50.086;19.886;2024-01-30T08:17:34;100696.56;;;-1.70;84.49
84781;BME280;75011;50.086;19.886;2024-01-30T08:20:35;100697.59;;;-1.61;84.30
84781;BME280;75011;50.086;19.886;2024-01-30T08:23:38;100694.84;;;-1.50;84.72
84781;BME280;75011;50.086;19.886;2024-01-30T08:26:38;100696.97;;;-1.44;84.78
84781;BME280;75011;50.086;19.886;2024-01-30T08:29:38;100701.41;;;-1.35;84.71
84781;BME280;75011;50.086;19.886;2024-01-30T08:32:39;100702.16;;;-1.23;85.22
84781;BME280;75011;50.086;19.886;2024-01-30T08:35:39;100692.75;;;-1.07;84.71
84781;BME280;75011;50.086;19.886;2024-01-30T08:38:41;100689.47;;;-0.90;85.31
84781;BME280;75011;50.086;19.886;2024-01-30T08:41:42;100691.56;;;-0.74;84.40
84781;BME280;75011;50.086;19.886;2024-01-30T08:44:42;100692.00;;;-0.59;83.94
84781;BME280;75011;50.086;19.886;2024-01-30T08:47:43;100694.22;;;-0.45;83.87
84781;BME280;75011;50.086;19.886;2024-01-30T08:50:43;100681.97;;;-0.37;83.72
84781;BME280;75011;50.086;19.886;2024-01-30T08:53:45;100686.00;;;-0.23;83.90
84781;BME280;75011;50.086;19.886;2024-01-30T08:56:45;100699.72;;;-0.10;84.01
84781;BME280;75011;50.086;19.886;2024-01-30T08:59:46;100689.16;;;-0.01;83.88
84781;BME280;75011;50.086;19.886;2024-01-30T09:02:46;100686.06;;;0.14;83.32
84781;BME280;75011;50.086;19.886;2024-01-30T09:05:47;100686.84;;;0.24;82.82
84781;BME280;75011;50.086;19.886;2024-01-30T09:08:49;100687.53;;;0.35;83.03
84781;BME280;75011;50.086;19.886;2024-01-30T09:11:49;100684.28;;;0.51;83.22
84781;BME280;75011;50.086;19.886;2024-01-30T09:14:49;100684.75;;;0.64;83.16
84781;BME280;75011;50.086;19.886;2024-01-30T09:17:50;100687.75;;;0.79;82.94
84781;BME280;75011;50.086;19.886;2024-01-30T09:20:50;100682.94;;;0.92;82.23
84781;BME280;75011;50.086;19.886;2024-01-30T09:23:54;100688.69;;;1.05;82.17
84781;BME280;75011;50.086;19.886;2024-01-30T09:26:54;100672.59;;;1.16;81.72
84781;BME280;75011;50.086;19.886;2024-01-30T09:29:55;100671.72;;;1.25;81.71
84781;BME280;75011;50.086;19.886;2024-01-30T09:32:55;100682.44;;;1.41;82.24
84781;BME280;75011;50.086;19.886;2024-01-30T09:35:56;100669.16;;;1.51;81.86
84781;BME280;75011;50.086;19.886;2024-01-30T09:38:58;100677.66;;;1.62;81.25
84781;BME280;75011;50.086;19.886;2024-01-30T09:42:04;100658.34;;;1.70;81.54
84781;BME280;75011;50.086;19.886;2024-01-30T09:45:06;100671.56;;;1.87;81.02
84781;BME280;75011;50.086;19.886;2024-01-30T09:48:06;100669.66;;;1.98;80.78
84781;BME280;75011;50.086;19.886;2024-01-30T09:51:07;100662.44;;;2.08;80.64
84781;BME280;75011;50.086;19.886;2024-01-30T09:54:09;100659.53;;;2.19;79.94
84781;BME280;75011;50.086;19.886;2024-01-30T09:57:11;100646.97;;;2.29;79.80
84781;BME280;75011;50.086;19.886;2024-01-30T10:00:21;100658.16;;;2.48;79.56
84781;BME280;75011;50.086;19.886;2024-01-30T10:03:21;100648.63;;;2.64;79.28
84781;BME280;75011;50.086;19.886;2024-01-30T10:06:24;100647.84;;;2.79;78.89
84781;BME280;75011;50.086;19.886;2024-01-30T10:09:25;100642.91;;;2.92;78.04
84781;BME280;75011;50.086;19.886;2024-01-30T10:12:26;100639.28;;;3.09;77.48
84781;BME280;75011;50.086;19.886;2024-01-30T10:15:28;100631.00;;;3.21;76.69
84781;BME280;75011;50.086;19.886;2024-01-30T10:18:28;100633.00;;;3.18;76.26
84781;BME280;75011;50.086;19.886;2024-01-30T10:21:29;100623.56;;;3.24;76.47
84781;BME280;75011;50.086;19.886;2024-01-30T10:24:30;100617.75;;;3.37;75.87
84781;BME280;75011;50.086;19.886;2024-01-30T10:27:31;100615.44;;;3.50;75.54
84781;BME280;75011;50.086;19.886;2024-01-30T10:30:33;100616.09;;;3.60;75.57
84781;BME280;75011;50.086;19.886;2024-01-30T10:33:33;100612.75;;;3.74;75.20
84781;BME280;75011;50.086;19.886;2024-01-30T10:36:39;100610.75;;;3.84;73.55
84781;BME280;75011;50.086;19.886;2024-01-30T10:39:41;100602.25;;;3.97;73.21
84781;BME280;75011;50.086;19.886;2024-01-30T10:42:43;100608.38;;;4.13;73.09
84781;BME280;75011;50.086;19.886;2024-01-30T10:45:49;100606.16;;;4.25;72.59
84781;BME280;75011;50.086;19.886;2024-01-30T10:48:54;100581.53;;;4.31;71.99
84781;BME280;75011;50.086;19.886;2024-01-30T10:51:57;100588.28;;;4.50;71.38
84781;BME280;75011;50.086;19.886;2024-01-30T10:54:58;100586.84;;;4.70;70.44
84781;BME280;75011;50.086;19.886;2024-01-30T10:57:59;100583.94;;;4.79;69.37
84781;BME280;75011;50.086;19.886;2024-01-30T11:01:02;100576.25;;;4.84;68.46
84781;BME280;75011;50.086;19.886;2024-01-30T11:04:03;100574.38;;;4.93;67.80
84781;BME280;75011;50.086;19.886;2024-01-30T11:07:14;100574.16;;;5.02;67.86
84781;BME280;75011;50.086;19.886;2024-01-30T11:10:14;100566.91;;;5.11;67.49
84781;BME280;75011;50.086;19.886;2024-01-30T11:13:15;100559.97;;;5.25;66.09
84781;BME280;75011;50.086;19.886;2024-01-30T11:16:20;100565.06;;;5.34;64.27
84781;BME280;75011;50.086;19.886;2024-01-30T11:19:23;100566.81;;;5.42;64.41
84781;BME280;75011;50.086;19.886;2024-01-30T11:22:24;100566.41;;;5.53;64.00
84781;BME280;75011;50.086;19.886;2024-01-30T11:25:25;100556.78;;;5.66;63.82
84781;BME280;75011;50.086;19.886;2024-01-30T11:28:32;100559.81;;;5.78;62.89
84781;BME280;75011;50.086;19.886;2024-01-30T11:31:34;100553.59;;;5.86;61.92
84781;BME280;75011;50.086;19.886;2024-01-30T11:34:35;100551.50;;;5.96;62.20
84781;BME280;75011;50.086;19.886;2024-01-30T11:37:41;100556.09;;;6.02;61.09
84781;BME280;75011;50.086;19.886;2024-01-30T11:40:43;100551.69;;;6.09;60.20
84781;BME280;75011;50.086;19.886;2024-01-30T11:43:51;100537.69;;;6.21;59.49
84781;BME280;75011;50.086;19.886;2024-01-30T11:46:53;100540.09;;;6.31;58.80
84781;BME280;75011;50.086;19.886;2024-01-30T11:49:53;100529.75;;;6.43;58.36
84781;BME280;75011;50.086;19.886;2024-01-30T11:52:54;100532.75;;;6.54;57.11
84781;BME280;75011;50.086;19.886;2024-01-30T11:55:55;100516.19;;;6.59;56.96
84781;BME280;75011;50.086;19.886;2024-01-30T11:58:55;100525.03;;;6.80;56.79
84781;BME280;75011;50.086;19.886;2024-01-30T12:01:57;100530.78;;;6.98;55.55
84781;BME280;75011;50.086;19.886;2024-01-30T12:04:57;100525.19;;;7.15;55.82
84781;BME280;75011;50.086;19.886;2024-01-30T12:07:58;100522.66;;;7.34;54.53
84781;BME280;75011;50.086;19.886;2024-01-30T12:10:59;100515.38;;;7.49;54.10
84781;BME280;75011;50.086;19.886;2024-01-30T12:13:59;100514.50;;;7.70;53.00
84781;BME280;75011;50.086;19.886;2024-01-30T12:17:01;100510.22;;;7.76;52.82
84781;BME280;75011;50.086;19.886;2024-01-30T12:20:05;100519.78;;;7.91;52.47
84781;BME280;75011;50.086;19.886;2024-01-30T12:23:06;100511.84;;;8.04;52.81
84781;BME280;75011;50.086;19.886;2024-01-30T12:26:06;100507.94;;;8.13;51.94
84781;BME280;75011;50.086;19.886;2024-01-30T12:29:07;100509.44;;;8.22;51.60
84781;BME280;75011;50.086;19.886;2024-01-30T12:32:09;100517.50;;;8.22;51.89
84781;BME280;75011;50.086;19.886;2024-01-30T12:35:15;100514.91;;;8.01;52.28
84781;BME280;75011;50.086;19.886;2024-01-30T12:38:16;100503.56;;;7.99;52.58
84781;BME280;75011;50.086;19.886;2024-01-30T12:41:17;100501.16;;;8.11;52.75
84781;BME280;75011;50.086;19.886;2024-01-30T12:44:17;100508.88;;;8.27;52.38
84781;BME280;75011;50.086;19.886;2024-01-30T12:47:21;100503.59;;;8.47;51.90
84781;BME280;75011;50.086;19.886;2024-01-30T12:50:21;100498.41;;;8.39;51.63
84781;BME280;75011;50.086;19.886;2024-01-30T12:53:22;100505.59;;;8.38;51.39
84781;BME280;75011;50.086;19.886;2024-01-30T12:56:22;100494.06;;;8.31;51.89
84781;BME280;75011;50.086;19.886;2024-01-30T12:59:23;100493.31;;;8.50;51.56
84781;BME280;75011;50.086;19.886;2024-01-30T13:02:25;100486.78;;;8.85;50.08
84781;BME280;75011;50.086;19.886;2024-01-30T13:05:25;100473.19;;;9.46;49.68
84781;BME280;75011;50.086;19.886;2024-01-30T13:08:26;100479.84;;;12.43;43.90
84781;BME280;75011;50.086;19.886;2024-01-30T13:11:26;100473.28;;;15.10;39.23
84781;BME280;75011;50.086;19.886;2024-01-30T13:14:26;100476.19;;;16.52;36.67
84781;BME280;75011;50.086;19.886;2024-01-30T13:17:28;100473.16;;;18.07;33.70
84781;BME280;75011;50.086;19.886;2024-01-30T13:20:29;100479.06;;;17.94;33.89
84781;BME280;75011;50.086;19.886;2024-01-30T13:23:29;100475.72;;;18.29;32.58
84781;BME280;75011;50.086;19.886;2024-01-30T13:26:31;100466.53;;;18.50;32.32
84781;BME280;75011;50.086;19.886;2024-01-30T13:29:32;100470.78;;;19.54;30.57
84781;BME280;75011;50.086;19.886;2024-01-30T13:32:34;100466.59;;;20.01;29.86
84781;BME280;75011;50.086;19.886;2024-01-30T13:35:34;100473.34;;;20.29;28.55
84781;BME280;75011;50.086;19.886;2024-01-30T13:38:35;100472.09;;;21.09;28.22
84781;BME280;75011;50.086;19.886;2024-01-30T13:41:35;100472.59;;;21.50;27.44
84781;BME280;75011;50.086;19.886;2024-01-30T13:44:36;100483.34;;;21.70;26.61
84781;BME280;75011;50.086;19.886;2024-01-30T13:47:38;100482.19;;;21.48;26.60
84781;BME280;75011;50.086;19.886;2024-01-30T13:50:38;100477.91;;;20.93;27.05
84781;BME280;75011;50.086;19.886;2024-01-30T13:53:38;100480.63;;;21.37;26.04
84781;BME280;75011;50.086;19.886;2024-01-30T13:56:39;100476.19;;;21.12;26.00
84781;BME280;75011;50.086;19.886;2024-01-30T13:59:39;100474.69;;;20.86;26.50
84781;BME280;75011;50.086;19.886;2024-01-30T14:02:41;100478.19;;;20.96;25.91
84781;BME280;75011;50.086;19.886;2024-01-30T14:05:42;100472.25;;;20.35;26.25
84781;BME280;75011;50.086;19.886;2024-01-30T14:08:42;100468.09;;;20.43;26.18
84781;BME280;75011;50.086;19.886;2024-01-30T14:11:43;100461.06;;;20.22;26.10
84781;BME280;75011;50.086;19.886;2024-01-30T14:14:43;100464.22;;;19.80;26.09
84781;BME280;75011;50.086;19.886;2024-01-30T14:17:45;100475.16;;;19.65;26.35
84781;BME280;75011;50.086;19.886;2024-01-30T14:20:46;100467.59;;;20.36;25.89
84781;BME280;75011;50.086;19.886;2024-01-30T14:23:46;100460.53;;;20.20;25.77
84781;BME280;75011;50.086;19.886;2024-01-30T14:26:46;100461.97;;;18.71;27.09
84781;BME280;75011;50.086;19.886;2024-01-30T14:29:47;100463.81;;;17.88;28.23
84781;BME280;75011;50.086;19.886;2024-01-30T14:32:49;100455.69;;;17.93;28.51
84781;BME280;75011;50.086;19.886;2024-01-30T14:35:49;100457.66;;;18.08;28.05
84781;BME280;75011;50.086;19.886;2024-01-30T14:38:50;100460.09;;;18.09;27.98
84781;BME280;75011;50.086;19.886;2024-01-30T14:41:50;100462.03;;;18.14;27.43
84781;BME280;75011;50.086;19.886;2024-01-30T14:44:51;100460.03;;;16.94;28.70
84781;BME280;75011;50.086;19.886;2024-01-30T14:47:53;100463.41;;;17.01;29.18
84781;BME280;75011;50.086;19.886;2024-01-30T14:50:53;100454.53;;;16.57;29.43
84781;BME280;75011;50.086;19.886;2024-01-30T14:53:54;100450.75;;;15.77;30.14
84781;BME280;75011;50.086;19.886;2024-01-30T14:56:54;100457.38;;;15.14;31.58
84781;BME280;75011;50.086;19.886;2024-01-30T14:59:55;100449.50;;;15.13;31.79
84781;BME280;75011;50.086;19.886;2024-01-30T15:02:57;100452.75;;;15.81;30.88
84781;BME280;75011;50.086;19.886;2024-01-30T15:05:57;100445.31;;;15.93;30.98
84781;BME280;75011;50.086;19.886;2024-01-30T15:08:57;100446.44;;;15.42;31.81
84781;BME280;75011;50.086;19.886;2024-01-30T15:11:58;100450.16;;;14.75;33.26
84781;BME280;75011;50.086;19.886;2024-01-30T15:14:58;100450.06;;;13.90;34.49
84781;BME280;75011;50.086;19.886;2024-01-30T15:18:00;100443.91;;;12.90;35.93
84781;BME280;75011;50.086;19.886;2024-01-30T15:21:01;100449.78;;;11.91;38.24
84781;BME280;75011;50.086;19.886;2024-01-30T15:24:02;100465.13;;;10.99;39.21
84781;BME280;75011;50.086;19.886;2024-01-30T15:27:03;100461.44;;;10.24;41.22
84781;BME280;75011;50.086;19.886;2024-01-30T15:30:04;100458.53;;;9.55;42.34
84781;BME280;75011;50.086;19.886;2024-01-30T15:33:06;100466.56;;;8.90;43.70
84781;BME280;75011;50.086;19.886;2024-01-30T15:36:07;100461.75;;;8.39;44.87